sensor_id;sensor_type;location;lat;lon;timestamp;P1;durP1;ratioP1;P2;durP2;ratioP2
48317;SDS011;34127;47.412;9.730;2023-11-22T00:01:49;7.20;;;3.90;;
48317;SDS011;34127;47.412;9.730;2023-11-22T00:04:15;6.07;;;3.20;;
48317;SDS011;34127;47.412;9.730;2023-11-22T00:06:43;4.43;;;3.03;;
48317;SDS011;34127;47.412;9.730;2023-11-22T00:09:09;6.85;;;3.42;;
48317;SDS011;34127;47.412;9.730;2023-11-22T00:11:35;4.63;;;2.70;;
48317;SDS011;34127;47.412;9.730;2023-11-22T00:14:01;3.72;;;2.30;;
48317;SDS011;34127;47.412;9.730;2023-11-22T00:16:27;4.00;;;2.42;;
48317;SDS011;34127;47.412;9.730;2023-11-22T00:18:55;4.00;;;2.40;;
48317;SDS011;34127;47.412;9.730;2023-11-22T00:21:21;4.32;;;2.53;;
48317;SDS011;34127;47.412;9.730;2023-11-22T00:23:47;5.63;;;2.83;;
48317;SDS011;34127;47.412;9.730;2023-11-22T00:26:13;3.90;;;2.40;;
48317;SDS011;34127;47.412;9.730;2023-11-22T00:28:40;3.83;;;2.47;;
48317;SDS011;34127;47.412;9.730;2023-11-22T00:31:06;6.45;;;3.50;;
48317;SDS011;34127;47.412;9.730;2023-11-22T00:33:33;5.95;;;3.42;;
48317;SDS011;34127;47.412;9.730;2023-11-22T00:35:59;7.07;;;3.75;;
48317;SDS011;34127;47.412;9.730;2023-11-22T00:38:29;6.20;;;3.97;;
48317;SDS011;34127;47.412;9.730;2023-11-22T00:40:55;6.85;;;4.45;;
48317;SDS011;34127;47.412;9.730;2023-11-22T00:43:21;7.03;;;4.70;;
48317;SDS011;34127;47.412;9.730;2023-11-22T00:45:48;6.03;;;3.92;;
48317;SDS011;34127;47.412;9.730;2023-11-22T00:48:14;5.20;;;3.55;;
48317;SDS011;34127;47.412;9.730;2023-11-22T00:50:40;4.88;;;3.10;;
48317;SDS011;34127;47.412;9.730;2023-11-22T00:53:06;4.97;;;3.13;;
48317;SDS011;34127;47.412;9.730;2023-11-22T00:55:32;4.72;;;3.10;;
48317;SDS011;34127;47.412;9.730;2023-11-22T00:57:59;4.88;;;3.42;;
48317;SDS011;34127;47.412;9.730;2023-11-22T01:00:29;6.90;;;3.55;;
48317;SDS011;34127;47.412;9.730;2023-11-22T01:02:55;5.30;;;3.50;;
48317;SDS011;34127;47.412;9.730;2023-11-22T01:05:21;5.32;;;3.53;;
48317;SDS011;34127;47.412;9.730;2023-11-22T01:07:47;5.88;;;3.97;;
48317;SDS011;34127;47.412;9.730;2023-11-22T01:10:14;5.70;;;3.88;;
48317;SDS011;34127;47.412;9.730;2023-11-22T01:12:40;5.70;;;3.70;;
48317;SDS011;34127;47.412;9.730;2023-11-22T01:15:09;6.80;;;3.97;;
48317;SDS011;34127;47.412;9.730;2023-11-22T01:17:35;6.63;;;4.57;;
48317;SDS011;34127;47.412;9.730;2023-11-22T01:20:02;7.78;;;4.82;;
48317;SDS011;34127;47.412;9.730;2023-11-22T01:22:28;8.35;;;4.60;;
48317;SDS011;34127;47.412;9.730;2023-11-22T01:24:54;5.97;;;4.28;;
48317;SDS011;34127;47.412;9.730;2023-11-22T01:27:20;7.97;;;4.85;;
48317;SDS011;34127;47.412;9.730;2023-11-22T01:29:47;6.63;;;4.25;;
48317;SDS011;34127;47.412;9.730;2023-11-22T01:32:13;6.75;;;4.57;;
48317;SDS011;34127;47.412;9.730;2023-11-22T01:34:42;6.47;;;4.50;;
48317;SDS011;34127;47.412;9.730;2023-11-22T01:37:08;9.30;;;5.80;;
48317;SDS011;34127;47.412;9.730;2023-11-22T01:39:34;7.68;;;5.40;;
48317;SDS011;34127;47.412;9.730;2023-11-22T01:42:00;8.13;;;4.97;;
48317;SDS011;34127;47.412;9.730;2023-11-22T01:44:26;10.13;;;5.50;;
48317;SDS011;34127;47.412;9.730;2023-11-22T01:49:19;8.93;;;5.38;;
48317;SDS011;34127;47.412;9.730;2023-11-22T01:51:45;8.93;;;5.65;;
48317;SDS011;34127;47.412;9.730;2023-11-22T01:54:11;8.93;;;5.75;;
48317;SDS011;34127;47.412;9.730;2023-11-22T01:56:37;9.30;;;5.70;;
48317;SDS011;34127;47.412;9.730;2023-11-22T01:59:04;9.10;;;6.00;;
48317;SDS011;34127;47.412;9.730;2023-11-22T02:01:30;10.70;;;5.90;;
48317;SDS011;34127;47.412;9.730;2023-11-22T02:03:57;11.95;;;5.85;;
48317;SDS011;34127;47.412;9.730;2023-11-22T02:06:23;10.77;;;6.47;;
48317;SDS011;34127;47.412;9.730;2023-11-22T02:08:50;9.70;;;6.50;;
48317;SDS011;34127;47.412;9.730;2023-11-22T02:11:17;12.05;;;7.43;;
48317;SDS011;34127;47.412;9.730;2023-11-22T02:13:52;10.02;;;6.80;;
48317;SDS011;34127;47.412;9.730;2023-11-22T02:16:18;9.15;;;6.53;;
48317;SDS011;34127;47.412;9.730;2023-11-22T02:18:45;9.68;;;6.70;;
48317;SDS011;34127;47.412;9.730;2023-11-22T02:21:11;9.60;;;6.55;;
48317;SDS011;34127;47.412;9.730;2023-11-22T02:23:37;9.85;;;6.78;;
48317;SDS011;34127;47.412;9.730;2023-11-22T02:26:04;8.63;;;5.40;;
48317;SDS011;34127;47.412;9.730;2023-11-22T02:28:30;9.57;;;5.90;;
48317;SDS011;34127;47.412;9.730;2023-11-22T02:30:56;9.38;;;6.20;;
48317;SDS011;34127;47.412;9.730;2023-11-22T02:33:22;9.40;;;5.35;;
48317;SDS011;34127;47.412;9.730;2023-11-22T02:35:48;7.35;;;4.80;;
48317;SDS011;34127;47.412;9.730;2023-11-22T02:38:15;6.57;;;4.55;;
48317;SDS011;34127;47.412;9.730;2023-11-22T02:40:43;7.10;;;5.00;;
48317;SDS011;34127;47.412;9.730;2023-11-22T02:43:09;8.35;;;4.80;;
48317;SDS011;34127;47.412;9.730;2023-11-22T02:45:36;6.38;;;4.40;;
48317;SDS011;34127;47.412;9.730;2023-11-22T02:48:03;7.80;;;4.72;;
48317;SDS011;34127;47.412;9.730;2023-11-22T02:50:34;6.30;;;3.60;;
48317;SDS011;34127;47.412;9.730;2023-11-22T02:53:02;5.47;;;3.97;;
48317;SDS011;34127;47.412;9.730;2023-11-22T02:55:28;8.75;;;3.70;;
48317;SDS011;34127;47.412;9.730;2023-11-22T02:57:54;5.30;;;3.60;;
48317;SDS011;34127;47.412;9.730;2023-11-22T03:00:21;6.60;;;3.97;;
48317;SDS011;34127;47.412;9.730;2023-11-22T03:02:47;6.53;;;4.43;;
48317;SDS011;34127;47.412;9.730;2023-11-22T03:05:19;6.05;;;4.07;;
48317;SDS011;34127;47.412;9.730;2023-11-22T03:07:45;6.68;;;4.10;;
48317;SDS011;34127;47.412;9.730;2023-11-22T03:10:11;9.02;;;4.15;;
48317;SDS011;34127;47.412;9.730;2023-11-22T03:12:38;7.90;;;4.50;;
48317;SDS011;34127;47.412;9.730;2023-11-22T03:15:04;7.32;;;4.32;;
48317;SDS011;34127;47.412;9.730;2023-11-22T03:17:30;6.18;;;4.35;;
48317;SDS011;34127;47.412;9.730;2023-11-22T03:19:58;6.25;;;3.70;;
48317;SDS011;34127;47.412;9.730;2023-11-22T03:22:25;7.15;;;4.22;;
48317;SDS011;34127;47.412;9.730;2023-11-22T03:24:52;6.70;;;4.00;;
48317;SDS011;34127;47.412;9.730;2023-11-22T03:27:18;6.13;;;3.60;;
48317;SDS011;34127;47.412;9.730;2023-11-22T03:29:47;6.28;;;3.80;;
48317;SDS011;34127;47.412;9.730;2023-11-22T03:32:13;5.80;;;3.90;;
48317;SDS011;34127;47.412;9.730;2023-11-22T03:34:39;6.78;;;4.10;;
48317;SDS011;34127;47.412;9.730;2023-11-22T03:37:05;6.78;;;4.38;;
48317;SDS011;34127;47.412;9.730;2023-11-22T03:39:32;6.28;;;4.30;;
48317;SDS011;34127;47.412;9.730;2023-11-22T03:41:58;6.72;;;4.65;;
48317;SDS011;34127;47.412;9.730;2023-11-22T03:44:24;7.47;;;4.00;;
48317;SDS011;34127;47.412;9.730;2023-11-22T03:46:50;8.82;;;4.78;;
48317;SDS011;34127;47.412;9.730;2023-11-22T03:49:16;6.28;;;3.67;;
48317;SDS011;34127;47.412;9.730;2023-11-22T03:51:43;6.10;;;3.95;;
48317;SDS011;34127;47.412;9.730;2023-11-22T03:54:09;5.80;;;3.95;;
48317;SDS011;34127;47.412;9.730;2023-11-22T03:56:36;7.30;;;4.38;;
48317;SDS011;34127;47.412;9.730;2023-11-22T03:59:02;9.95;;;5.00;;
48317;SDS011;34127;47.412;9.730;2023-11-22T04:01:28;9.25;;;5.25;;
48317;SDS011;34127;47.412;9.730;2023-11-22T04:03:55;7.78;;;5.00;;
48317;SDS011;34127;47.412;9.730;2023-11-22T04:06:22;11.13;;;5.72;;
48317;SDS011;34127;47.412;9.730;2023-11-22T04:08:48;7.85;;;5.63;;
48317;SDS011;34127;47.412;9.730;2023-11-22T04:11:15;9.27;;;5.10;;
48317;SDS011;34127;47.412;9.730;2023-11-22T04:13:42;8.73;;;5.18;;
48317;SDS011;34127;47.412;9.730;2023-11-22T04:16:09;8.73;;;5.35;;
48317;SDS011;34127;47.412;9.730;2023-11-22T04:18:38;7.82;;;5.28;;
48317;SDS011;34127;47.412;9.730;2023-11-22T04:21:04;6.82;;;4.90;;
48317;SDS011;34127;47.412;9.730;2023-11-22T04:23:31;9.00;;;4.97;;
48317;SDS011;34127;47.412;9.730;2023-11-22T04:25:57;8.57;;;5.70;;
48317;SDS011;34127;47.412;9.730;2023-11-22T04:28:24;10.00;;;5.30;;
48317;SDS011;34127;47.412;9.730;2023-11-22T04:30:50;9.15;;;6.30;;
48317;SDS011;34127;47.412;9.730;2023-11-22T04:33:17;8.48;;;5.20;;
48317;SDS011;34127;47.412;9.730;2023-11-22T04:35:43;9.52;;;6.47;;
48317;SDS011;34127;47.412;9.730;2023-11-22T04:38:09;10.98;;;6.88;;
48317;SDS011;34127;47.412;9.730;2023-11-22T04:40:35;13.82;;;7.55;;
48317;SDS011;34127;47.412;9.730;2023-11-22T04:43:01;10.70;;;6.95;;
48317;SDS011;34127;47.412;9.730;2023-11-22T04:45:27;11.52;;;7.45;;
48317;SDS011;34127;47.412;9.730;2023-11-22T04:47:54;13.07;;;8.45;;
48317;SDS011;34127;47.412;9.730;2023-11-22T04:50:22;12.93;;;8.02;;
48317;SDS011;34127;47.412;9.730;2023-11-22T04:52:51;12.48;;;7.57;;
48317;SDS011;34127;47.412;9.730;2023-11-22T04:55:17;14.27;;;8.23;;
48317;SDS011;34127;47.412;9.730;2023-11-22T04:57:44;11.60;;;7.57;;
48317;SDS011;34127;47.412;9.730;2023-11-22T05:00:11;12.43;;;7.60;;
48317;SDS011;34127;47.412;9.730;2023-11-22T05:02:37;14.20;;;7.68;;
48317;SDS011;34127;47.412;9.730;2023-11-22T05:05:05;15.43;;;8.13;;
48317;SDS011;34127;47.412;9.730;2023-11-22T05:07:31;12.57;;;7.90;;
48317;SDS011;34127;47.412;9.730;2023-11-22T05:09:57;11.50;;;7.30;;
48317;SDS011;34127;47.412;9.730;2023-11-22T05:12:23;13.20;;;7.43;;
48317;SDS011;34127;47.412;9.730;2023-11-22T05:14:50;14.68;;;7.57;;
48317;SDS011;34127;47.412;9.730;2023-11-22T05:17:16;12.05;;;7.55;;
48317;SDS011;34127;47.412;9.730;2023-11-22T05:19:42;11.68;;;7.70;;
48317;SDS011;34127;47.412;9.730;2023-11-22T05:22:08;11.18;;;7.53;;
48317;SDS011;34127;47.412;9.730;2023-11-22T05:24:34;10.95;;;7.03;;
48317;SDS011;34127;47.412;9.730;2023-11-22T05:27:00;10.57;;;7.25;;
48317;SDS011;34127;47.412;9.730;2023-11-22T05:29:27;13.45;;;7.18;;
48317;SDS011;34127;47.412;9.730;2023-11-22T05:31:53;12.05;;;7.40;;
48317;SDS011;34127;47.412;9.730;2023-11-22T05:34:19;10.88;;;6.60;;
48317;SDS011;34127;47.412;9.730;2023-11-22T05:36:45;11.18;;;6.97;;
48317;SDS011;34127;47.412;9.730;2023-11-22T05:39:11;11.55;;;7.40;;
48317;SDS011;34127;47.412;9.730;2023-11-22T05:41:38;12.00;;;7.40;;
48317;SDS011;34127;47.412;9.730;2023-11-22T05:44:04;10.85;;;7.00;;
48317;SDS011;34127;47.412;9.730;2023-11-22T05:46:33;10.88;;;7.07;;
48317;SDS011;34127;47.412;9.730;2023-11-22T05:48:59;12.95;;;7.82;;
48317;SDS011;34127;47.412;9.730;2023-11-22T05:51:25;11.38;;;6.97;;
48317;SDS011;34127;47.412;9.730;2023-11-22T05:53:51;11.07;;;6.53;;
48317;SDS011;34127;47.412;9.730;2023-11-22T05:56:18;10.88;;;6.63;;
48317;SDS011;34127;47.412;9.730;2023-11-22T05:58:44;12.82;;;8.07;;
48317;SDS011;34127;47.412;9.730;2023-11-22T06:01:10;11.55;;;7.20;;
48317;SDS011;34127;47.412;9.730;2023-11-22T06:03:39;10.63;;;6.70;;
48317;SDS011;34127;47.412;9.730;2023-11-22T06:06:05;13.05;;;8.50;;
48317;SDS011;34127;47.412;9.730;2023-11-22T06:08:31;12.48;;;7.43;;
48317;SDS011;34127;47.412;9.730;2023-11-22T06:10:58;11.60;;;6.57;;
48317;SDS011;34127;47.412;9.730;2023-11-22T06:13:25;12.63;;;7.22;;
48317;SDS011;34127;47.412;9.730;2023-11-22T06:15:51;11.45;;;6.80;;
48317;SDS011;34127;47.412;9.730;2023-11-22T06:18:17;11.20;;;6.95;;
48317;SDS011;34127;47.412;9.730;2023-11-22T06:20:44;14.07;;;7.25;;
48317;SDS011;34127;47.412;9.730;2023-11-22T06:23:10;15.25;;;7.20;;
48317;SDS011;34127;47.412;9.730;2023-11-22T06:25:36;11.88;;;6.95;;
48317;SDS011;34127;47.412;9.730;2023-11-22T06:28:03;11.98;;;6.85;;
48317;SDS011;34127;47.412;9.730;2023-11-22T06:30:29;15.32;;;7.63;;
48317;SDS011;34127;47.412;9.730;2023-11-22T06:32:55;13.65;;;7.63;;
48317;SDS011;34127;47.412;9.730;2023-11-22T06:35:23;12.95;;;7.90;;
48317;SDS011;34127;47.412;9.730;2023-11-22T06:41:11;12.68;;;7.35;;
48317;SDS011;34127;47.412;9.730;2023-11-22T06:43:44;14.75;;;8.38;;
48317;SDS011;34127;47.412;9.730;2023-11-22T06:46:20;16.23;;;8.90;;
48317;SDS011;34127;47.412;9.730;2023-11-22T06:49:16;16.23;;;7.85;;
48317;SDS011;34127;47.412;9.730;2023-11-22T06:52:30;14.48;;;8.00;;
48317;SDS011;34127;47.412;9.730;2023-11-22T06:55:24;14.63;;;8.55;;
48317;SDS011;34127;47.412;9.730;2023-11-22T06:57:59;15.20;;;8.05;;
48317;SDS011;34127;47.412;9.730;2023-11-22T07:01:00;16.52;;;9.13;;
48317;SDS011;34127;47.412;9.730;2023-11-22T07:03:38;15.77;;;8.75;;
48317;SDS011;34127;47.412;9.730;2023-11-22T07:06:10;10.93;;;6.55;;
48317;SDS011;34127;47.412;9.730;2023-11-22T07:12:25;13.48;;;6.47;;
48317;SDS011;34127;47.412;9.730;2023-11-22T07:15:08;11.35;;;6.75;;
48317;SDS011;34127;47.412;9.730;2023-11-22T07:18:00;10.63;;;5.80;;
48317;SDS011;34127;47.412;9.730;2023-11-22T07:20:43;10.00;;;5.80;;
48317;SDS011;34127;47.412;9.730;2023-11-22T07:23:16;7.80;;;4.20;;
48317;SDS011;34127;47.412;9.730;2023-11-22T07:25:55;6.47;;;3.30;;
48317;SDS011;34127;47.412;9.730;2023-11-22T07:28:29;5.28;;;2.85;;
48317;SDS011;34127;47.412;9.730;2023-11-22T07:31:06;5.88;;;3.38;;
48317;SDS011;34127;47.412;9.730;2023-11-22T07:33:55;4.38;;;2.72;;
48317;SDS011;34127;47.412;9.730;2023-11-22T07:36:32;4.75;;;2.75;;
48317;SDS011;34127;47.412;9.730;2023-11-22T07:39:06;5.28;;;2.10;;
48317;SDS011;34127;47.412;9.730;2023-11-22T07:41:53;3.42;;;2.00;;
48317;SDS011;34127;47.412;9.730;2023-11-22T07:44:27;4.38;;;2.58;;
48317;SDS011;34127;47.412;9.730;2023-11-22T07:47:04;5.20;;;1.90;;
48317;SDS011;34127;47.412;9.730;2023-11-22T07:50:10;3.47;;;2.00;;
48317;SDS011;34127;47.412;9.730;2023-11-22T07:53:02;8.00;;;3.25;;
48317;SDS011;34127;47.412;9.730;2023-11-22T07:55:46;4.65;;;2.55;;
48317;SDS011;34127;47.412;9.730;2023-11-22T08:02:07;4.00;;;1.83;;
48317;SDS011;34127;47.412;9.730;2023-11-22T08:04:51;5.90;;;2.22;;
48317;SDS011;34127;47.412;9.730;2023-11-22T08:07:55;6.70;;;2.60;;
48317;SDS011;34127;47.412;9.730;2023-11-22T08:10:50;4.55;;;2.53;;
48317;SDS011;34127;47.412;9.730;2023-11-22T08:13:58;3.78;;;2.30;;
48317;SDS011;34127;47.412;9.730;2023-11-22T08:16:30;4.82;;;2.95;;
48317;SDS011;34127;47.412;9.730;2023-11-22T08:19:06;4.43;;;2.70;;
48317;SDS011;34127;47.412;9.730;2023-11-22T08:21:44;4.00;;;2.40;;
48317;SDS011;34127;47.412;9.730;2023-11-22T08:30:41;5.45;;;3.33;;
48317;SDS011;34127;47.412;9.730;2023-11-22T08:33:29;4.53;;;2.53;;
48317;SDS011;34127;47.412;9.730;2023-11-22T08:36:08;4.72;;;2.80;;
48317;SDS011;34127;47.412;9.730;2023-11-22T08:39:11;7.47;;;4.07;;
48317;SDS011;34127;47.412;9.730;2023-11-22T08:41:56;7.97;;;4.13;;
48317;SDS011;34127;47.412;9.730;2023-11-22T08:48:30;7.43;;;3.88;;
48317;SDS011;34127;47.412;9.730;2023-11-22T08:51:40;9.88;;;5.63;;
48317;SDS011;34127;47.412;9.730;2023-11-22T08:54:26;7.90;;;4.35;;
48317;SDS011;34127;47.412;9.730;2023-11-22T09:06:46;11.15;;;5.35;;
48317;SDS011;34127;47.412;9.730;2023-11-22T09:09:28;7.88;;;5.35;;
48317;SDS011;34127;47.412;9.730;2023-11-22T09:12:27;8.73;;;5.10;;
48317;SDS011;34127;47.412;9.730;2023-11-22T09:18:27;9.00;;;4.68;;
48317;SDS011;34127;47.412;9.730;2023-11-22T09:21:01;9.20;;;4.90;;
48317;SDS011;34127;47.412;9.730;2023-11-22T09:23:52;9.20;;;5.40;;
48317;SDS011;34127;47.412;9.730;2023-11-22T09:26:19;8.70;;;5.18;;
48317;SDS011;34127;47.412;9.730;2023-11-22T09:28:54;7.45;;;4.20;;
48317;SDS011;34127;47.412;9.730;2023-11-22T09:31:21;8.07;;;4.68;;
48317;SDS011;34127;47.412;9.730;2023-11-22T09:33:49;8.95;;;5.32;;
48317;SDS011;34127;47.412;9.730;2023-11-22T09:36:17;8.90;;;4.78;;
48317;SDS011;34127;47.412;9.730;2023-11-22T09:38:49;8.30;;;4.82;;
48317;SDS011;34127;47.412;9.730;2023-11-22T09:41:22;8.02;;;4.53;;
48317;SDS011;34127;47.412;9.730;2023-11-22T09:44:02;7.80;;;4.50;;
48317;SDS011;34127;47.412;9.730;2023-11-22T09:46:43;10.07;;;5.93;;
48317;SDS011;34127;47.412;9.730;2023-11-22T09:49:17;9.25;;;5.32;;
48317;SDS011;34127;47.412;9.730;2023-11-22T09:51:50;7.63;;;4.60;;
48317;SDS011;34127;47.412;9.730;2023-11-22T09:54:27;8.07;;;4.93;;
48317;SDS011;34127;47.412;9.730;2023-11-22T09:57:14;7.85;;;4.68;;
48317;SDS011;34127;47.412;9.730;2023-11-22T10:00:24;8.65;;;4.75;;
48317;SDS011;34127;47.412;9.730;2023-11-22T10:06:31;7.90;;;4.63;;
48317;SDS011;34127;47.412;9.730;2023-11-22T10:09:06;7.32;;;4.45;;
48317;SDS011;34127;47.412;9.730;2023-11-22T10:11:38;7.85;;;4.70;;
48317;SDS011;34127;47.412;9.730;2023-11-22T10:14:09;8.90;;;4.70;;
48317;SDS011;34127;47.412;9.730;2023-11-22T10:16:58;8.55;;;4.90;;
48317;SDS011;34127;47.412;9.730;2023-11-22T10:19:37;8.25;;;4.95;;
48317;SDS011;34127;47.412;9.730;2023-11-22T10:22:09;6.30;;;3.90;;
48317;SDS011;34127;47.412;9.730;2023-11-22T10:24:44;9.73;;;4.72;;
48317;SDS011;34127;47.412;9.730;2023-11-22T10:27:16;7.63;;;4.63;;
48317;SDS011;34127;47.412;9.730;2023-11-22T10:29:51;6.72;;;4.53;;
48317;SDS011;34127;47.412;9.730;2023-11-22T10:32:30;7.68;;;4.68;;
48317;SDS011;34127;47.412;9.730;2023-11-22T10:35:03;7.25;;;4.13;;
48317;SDS011;34127;47.412;9.730;2023-11-22T10:37:41;6.68;;;3.80;;
48317;SDS011;34127;47.412;9.730;2023-11-22T10:40:14;6.78;;;4.00;;
48317;SDS011;34127;47.412;9.730;2023-11-22T10:42:49;7.72;;;3.55;;
48317;SDS011;34127;47.412;9.730;2023-11-22T10:45:32;5.43;;;3.28;;
48317;SDS011;34127;47.412;9.730;2023-11-22T10:48:03;6.10;;;3.50;;
48317;SDS011;34127;47.412;9.730;2023-11-22T10:50:47;6.40;;;3.78;;
48317;SDS011;34127;47.412;9.730;2023-11-22T10:53:42;6.10;;;3.58;;
48317;SDS011;34127;47.412;9.730;2023-11-22T10:56:18;5.88;;;3.65;;
48317;SDS011;34127;47.412;9.730;2023-11-22T10:58:55;5.70;;;3.45;;
48317;SDS011;34127;47.412;9.730;2023-11-22T11:01:30;5.20;;;3.28;;
48317;SDS011;34127;47.412;9.730;2023-11-22T11:04:51;5.45;;;3.47;;
48317;SDS011;34127;47.412;9.730;2023-11-22T11:07:19;6.13;;;3.47;;
48317;SDS011;34127;47.412;9.730;2023-11-22T11:09:50;6.60;;;3.42;;
48317;SDS011;34127;47.412;9.730;2023-11-22T11:12:22;6.22;;;3.50;;
48317;SDS011;34127;47.412;9.730;2023-11-22T11:14:54;6.30;;;3.70;;
48317;SDS011;34127;47.412;9.730;2023-11-22T11:17:50;4.97;;;3.08;;
48317;SDS011;34127;47.412;9.730;2023-11-22T11:23:38;4.72;;;3.00;;
48317;SDS011;34127;47.412;9.730;2023-11-22T11:29:32;6.90;;;3.65;;
48317;SDS011;34127;47.412;9.730;2023-11-22T11:32:31;4.88;;;3.10;;
48317;SDS011;34127;47.412;9.730;2023-11-22T11:35:00;5.55;;;3.38;;
48317;SDS011;34127;47.412;9.730;2023-11-22T11:37:32;5.40;;;3.30;;
48317;SDS011;34127;47.412;9.730;2023-11-22T11:40:09;5.10;;;3.10;;
48317;SDS011;34127;47.412;9.730;2023-11-22T11:42:48;4.20;;;2.87;;
48317;SDS011;34127;47.412;9.730;2023-11-22T11:45:15;5.65;;;2.90;;
48317;SDS011;34127;47.412;9.730;2023-11-22T11:47:44;4.93;;;2.85;;
48317;SDS011;34127;47.412;9.730;2023-11-22T11:50:12;5.90;;;3.47;;
48317;SDS011;34127;47.412;9.730;2023-11-22T11:52:38;5.70;;;3.30;;
48317;SDS011;34127;47.412;9.730;2023-11-22T11:55:05;7.18;;;4.38;;
48317;SDS011;34127;47.412;9.730;2023-11-22T11:57:31;5.97;;;3.63;;
48317;SDS011;34127;47.412;9.730;2023-11-22T11:59:58;5.88;;;3.50;;
48317;SDS011;34127;47.412;9.730;2023-11-22T12:02:24;6.55;;;4.18;;
48317;SDS011;34127;47.412;9.730;2023-11-22T12:04:51;6.20;;;3.75;;
48317;SDS011;34127;47.412;9.730;2023-11-22T12:07:17;5.60;;;3.35;;
48317;SDS011;34127;47.412;9.730;2023-11-22T12:09:43;5.75;;;3.58;;
48317;SDS011;34127;47.412;9.730;2023-11-22T12:12:11;5.88;;;3.72;;
48317;SDS011;34127;47.412;9.730;2023-11-22T12:14:37;5.53;;;3.10;;
48317;SDS011;34127;47.412;9.730;2023-11-22T12:17:05;6.40;;;3.45;;
48317;SDS011;34127;47.412;9.730;2023-11-22T12:19:33;5.55;;;3.10;;
48317;SDS011;34127;47.412;9.730;2023-11-22T12:22:00;5.72;;;3.58;;
48317;SDS011;34127;47.412;9.730;2023-11-22T12:24:27;4.82;;;3.22;;
48317;SDS011;34127;47.412;9.730;2023-11-22T12:26:53;5.68;;;3.35;;
48317;SDS011;34127;47.412;9.730;2023-11-22T12:29:23;5.95;;;3.65;;
48317;SDS011;34127;47.412;9.730;2023-11-22T12:31:50;6.68;;;3.92;;
48317;SDS011;34127;47.412;9.730;2023-11-22T12:34:22;6.32;;;3.70;;
48317;SDS011;34127;47.412;9.730;2023-11-22T12:36:52;6.13;;;3.80;;
48317;SDS011;34127;47.412;9.730;2023-11-22T12:39:19;6.20;;;3.42;;
48317;SDS011;34127;47.412;9.730;2023-11-22T12:41:52;6.45;;;4.35;;
48317;SDS011;34127;47.412;9.730;2023-11-22T12:44:19;6.38;;;3.78;;
48317;SDS011;34127;47.412;9.730;2023-11-22T12:46:46;5.63;;;3.67;;
48317;SDS011;34127;47.412;9.730;2023-11-22T12:49:24;8.50;;;4.00;;
48317;SDS011;34127;47.412;9.730;2023-11-22T12:51:51;9.98;;;4.13;;
48317;SDS011;34127;47.412;9.730;2023-11-22T12:54:18;7.00;;;3.90;;
48317;SDS011;34127;47.412;9.730;2023-11-22T12:56:51;11.52;;;4.80;;
48317;SDS011;34127;47.412;9.730;2023-11-22T12:59:24;8.40;;;4.22;;
48317;SDS011;34127;47.412;9.730;2023-11-22T13:01:56;6.32;;;3.65;;
48317;SDS011;34127;47.412;9.730;2023-11-22T13:04:25;7.15;;;4.13;;
48317;SDS011;34127;47.412;9.730;2023-11-22T13:06:53;6.65;;;4.13;;
48317;SDS011;34127;47.412;9.730;2023-11-22T13:09:19;7.15;;;4.60;;
48317;SDS011;34127;47.412;9.730;2023-11-22T13:11:45;6.25;;;3.97;;
48317;SDS011;34127;47.412;9.730;2023-11-22T13:14:12;6.63;;;4.20;;
48317;SDS011;34127;47.412;9.730;2023-11-22T13:16:42;6.68;;;3.90;;
48317;SDS011;34127;47.412;9.730;2023-11-22T13:19:10;9.23;;;4.35;;
48317;SDS011;34127;47.412;9.730;2023-11-22T13:21:36;6.80;;;3.75;;
48317;SDS011;34127;47.412;9.730;2023-11-22T13:24:03;7.05;;;3.13;;
48317;SDS011;34127;47.412;9.730;2023-11-22T13:26:32;6.00;;;3.30;;
48317;SDS011;34127;47.412;9.730;2023-11-22T13:28:59;4.22;;;2.58;;
48317;SDS011;34127;47.412;9.730;2023-11-22T13:31:27;5.35;;;3.00;;
48317;SDS011;34127;47.412;9.730;2023-11-22T13:33:55;5.10;;;3.17;;
48317;SDS011;34127;47.412;9.730;2023-11-22T13:36:21;4.90;;;3.20;;
48317;SDS011;34127;47.412;9.730;2023-11-22T13:38:48;6.18;;;3.40;;
48317;SDS011;34127;47.412;9.730;2023-11-22T13:41:17;5.88;;;3.60;;
48317;SDS011;34127;47.412;9.730;2023-11-22T13:43:44;5.88;;;3.92;;
48317;SDS011;34127;47.412;9.730;2023-11-22T13:46:11;7.68;;;4.70;;
48317;SDS011;34127;47.412;9.730;2023-11-22T13:48:38;7.72;;;5.32;;
48317;SDS011;34127;47.412;9.730;2023-11-22T13:51:04;7.15;;;4.25;;
48317;SDS011;34127;47.412;9.730;2023-11-22T13:53:33;7.38;;;4.10;;
48317;SDS011;34127;47.412;9.730;2023-11-22T13:56:01;6.28;;;3.97;;
48317;SDS011;34127;47.412;9.730;2023-11-22T13:58:35;7.82;;;4.18;;
48317;SDS011;34127;47.412;9.730;2023-11-22T14:01:04;7.55;;;4.03;;
48317;SDS011;34127;47.412;9.730;2023-11-22T14:03:34;7.82;;;4.45;;
48317;SDS011;34127;47.412;9.730;2023-11-22T14:06:01;7.97;;;4.75;;
48317;SDS011;34127;47.412;9.730;2023-11-22T14:08:30;7.00;;;4.10;;
48317;SDS011;34127;47.412;9.730;2023-11-22T14:10:56;9.70;;;4.97;;
48317;SDS011;34127;47.412;9.730;2023-11-22T14:13:24;8.27;;;4.30;;
48317;SDS011;34127;47.412;9.730;2023-11-22T14:15:51;7.50;;;4.15;;
48317;SDS011;34127;47.412;9.730;2023-11-22T14:18:18;5.38;;;3.55;;
48317;SDS011;34127;47.412;9.730;2023-11-22T14:20:44;5.22;;;3.35;;
48317;SDS011;34127;47.412;9.730;2023-11-22T14:23:10;5.50;;;3.40;;
48317;SDS011;34127;47.412;9.730;2023-11-22T14:25:37;5.30;;;3.40;;
48317;SDS011;34127;47.412;9.730;2023-11-22T14:28:03;6.40;;;3.67;;
48317;SDS011;34127;47.412;9.730;2023-11-22T14:30:29;5.68;;;3.63;;
48317;SDS011;34127;47.412;9.730;2023-11-22T14:33:00;6.43;;;3.80;;
48317;SDS011;34127;47.412;9.730;2023-11-22T14:35:31;6.75;;;3.88;;
48317;SDS011;34127;47.412;9.730;2023-11-22T14:37:57;7.43;;;4.20;;
48317;SDS011;34127;47.412;9.730;2023-11-22T14:40:25;6.07;;;3.83;;
48317;SDS011;34127;47.412;9.730;2023-11-22T14:42:52;8.27;;;4.07;;
48317;SDS011;34127;47.412;9.730;2023-11-22T14:45:18;8.05;;;4.40;;
48317;SDS011;34127;47.412;9.730;2023-11-22T14:47:47;6.60;;;4.25;;
48317;SDS011;34127;47.412;9.730;2023-11-22T14:50:15;8.10;;;4.60;;
48317;SDS011;34127;47.412;9.730;2023-11-22T14:52:41;6.57;;;4.03;;
48317;SDS011;34127;47.412;9.730;2023-11-22T14:55:09;6.80;;;4.20;;
48317;SDS011;34127;47.412;9.730;2023-11-22T14:57:37;7.30;;;4.45;;
48317;SDS011;34127;47.412;9.730;2023-11-22T15:00:04;9.60;;;5.05;;
48317;SDS011;34127;47.412;9.730;2023-11-22T15:02:34;7.43;;;4.85;;
48317;SDS011;34127;47.412;9.730;2023-11-22T15:05:01;7.68;;;4.75;;
48317;SDS011;34127;47.412;9.730;2023-11-22T15:07:28;8.18;;;5.22;;
48317;SDS011;34127;47.412;9.730;2023-11-22T15:09:55;10.88;;;5.82;;
48317;SDS011;34127;47.412;9.730;2023-11-22T15:12:21;9.85;;;5.78;;
48317;SDS011;34127;47.412;9.730;2023-11-22T15:14:47;8.63;;;5.28;;
48317;SDS011;34127;47.412;9.730;2023-11-22T15:17:13;10.68;;;5.82;;
48317;SDS011;34127;47.412;9.730;2023-11-22T15:19:39;9.00;;;5.80;;
48317;SDS011;34127;47.412;9.730;2023-11-22T15:22:06;8.98;;;5.88;;
48317;SDS011;34127;47.412;9.730;2023-11-22T15:24:32;8.55;;;5.57;;
48317;SDS011;34127;47.412;9.730;2023-11-22T15:26:58;8.93;;;5.80;;
48317;SDS011;34127;47.412;9.730;2023-11-22T15:29:24;9.65;;;6.20;;
48317;SDS011;34127;47.412;9.730;2023-11-22T15:31:51;10.65;;;6.70;;
48317;SDS011;34127;47.412;9.730;2023-11-22T15:34:19;9.90;;;6.32;;
48317;SDS011;34127;47.412;9.730;2023-11-22T15:36:45;12.43;;;6.43;;
48317;SDS011;34127;47.412;9.730;2023-11-22T15:39:11;9.75;;;6.25;;
48317;SDS011;34127;47.412;9.730;2023-11-22T15:41:40;12.07;;;6.88;;
48317;SDS011;34127;47.412;9.730;2023-11-22T15:44:08;12.27;;;7.57;;
48317;SDS011;34127;47.412;9.730;2023-11-22T15:46:34;11.60;;;7.32;;
48317;SDS011;34127;47.412;9.730;2023-11-22T15:49:00;11.82;;;7.90;;
48317;SDS011;34127;47.412;9.730;2023-11-22T15:51:28;11.82;;;7.82;;
48317;SDS011;34127;47.412;9.730;2023-11-22T15:53:55;10.25;;;7.20;;